Time,TemperatureF,DewpointF,PressureIn,WindDirection,WindDirectionDegrees,WindSpeedMPH,WindSpeedGustMPH,Humidity,HourlyPrecipIn,Conditions,Clouds,dailyrainin,SoftwareType,DateUTC
2013-08-31 00:05:00,68.1,57.0,29.91,NNE,25,1.0,-999.0,67,-99.99,,,0.00,weatherlink.com 1.10,2013-08-31 07:05:00,
2013-08-31 00:20:00,68.3,56.0,29.91,NE,40,1.0,-999.0,66,-99.99,,,0.00,weatherlink.com 1.10,2013-08-31 07:20:00,
2013-08-31 00:35:00,67.8,56.0,29.90,NE,44,4.0,-999.0,67,-99.99,,,0.00,weatherlink.com 1.10,2013-08-31 07:35:00,
2013-08-31 00:50:00,67.3,56.0,29.90,NE,44,4.0,-999.0,68,-99.99,,,0.00,weatherlink.com 1.10,2013-08-31 07:50:00,
2013-08-31 01:05:00,66.9,56.0,29.90,NE,40,1.0,-999.0,68,-99.99,,,0.00,weatherlink.com 1.10,2013-08-31 08:05:00,
2013-08-31 01:20:00,66.8,56.0,29.90,NE,48,2.0,-999.0,68,-99.99,,,0.00,weatherlink.com 1.10,2013-08-31 08:20:00,
2013-08-31 01:35:00,66.6,56.0,29.89,NE,49,1.0,-999.0,68,-99.99,,,0.00,weatherlink.com 1.10,2013-08-31 08:35:00,
2013-08-31 01:50:00,66.6,56.0,29.89,NE,37,2.0,-999.0,69,-99.99,,,0.00,weatherlink.com 1.10,2013-08-31 08:50:00,
2013-08-31 02:05:00,66.4,56.0,29.89,NE,34,1.0,-999.0,69,-99.99,,,0.00,weatherlink.com 1.10,2013-08-31 09:05:00,
2013-08-31 02:20:00,66.3,56.0,29.89,NE,42,3.0,-999.0,70,-99.99,,,0.00,weatherlink.com 1.10,2013-08-31 09:20:00,
2013-08-31 02:35:00,66.1,56.0,29.88,NE,51,4.0,-999.0,70,-99.99,,,0.00,weatherlink.com 1.10,2013-08-31 09:35:00,
2013-08-31 02:50:00,66.0,56.0,29.88,NNE,24,0.0,-999.0,71,-99.99,,,0.00,weatherlink.com 1.10,2013-08-31 09:50:00,
2013-08-31 03:05:00,65.6,56.0,29.88,NE,44,3.0,-999.0,71,-99.99,,,0.00,weatherlink.com 1.10,2013-08-31 10:05:00,
2013-08-31 03:20:00,65.5,56.0,29.87,NE,41,4.0,-999.0,72,-99.99,,,0.00,weatherlink.com 1.10,2013-08-31 10:20:00,
2013-08-31 03:35:00,65.2,56.0,29.86,NE,39,0.0,-999.0,72,-99.99,,,0.00,weatherlink.com 1.10,2013-08-31 10:35:00,
2013-08-31 03:50:00,65.0,56.0,29.87,NE,40,0.0,-999.0,73,-99.99,,,0.00,weatherlink.com 1.10,2013-08-31 10:50:00,
2013-08-31 04:05:00,64.8,56.0,29.86,NNE,31,0.0,-999.0,73,-99.99,,,0.00,weatherlink.com 1.10,2013-08-31 11:05:00,
2013-08-31 04:20:00,62.7,55.0,29.87,NNE,31,0.0,-999.0,77,-99.99,,,0.00,weatherlink.com 1.10,2013-08-31 11:20:00,
2013-08-31 04:35:00,62.0,56.0,29.87,NNE,31,0.0,-999.0,80,-99.99,,,0.00,weatherlink.com 1.10,2013-08-31 11:35:00,
2013-08-31 04:50:00,61.2,55.0,29.87,NNE,31,0.0,-999.0,81,-99.99,,,0.00,weatherlink.com 1.10,2013-08-31 11:50:00,
2013-08-31 05:05:00,60.4,56.0,29.87,NNE,31,0.0,-999.0,84,-99.99,,,0.00,weatherlink.com 1.10,2013-08-31 12:05:00,
2013-08-31 05:35:00,59.6,55.0,29.86,NNE,31,0.0,-999.0,85,-99.99,,,0.00,weatherlink.com 1.10,2013-08-31 12:35:00,
2013-08-31 05:50:00,59.9,55.0,29.86,NNE,31,0.0,-999.0,85,-99.99,,,0.00,weatherlink.com 1.10,2013-08-31 12:50:00,
2013-08-31 06:05:00,60.5,56.0,29.86,NNE,31,0.0,-999.0,84,-99.99,,,0.00,weatherlink.com 1.10,2013-08-31 13:05:00,
2013-08-31 06:20:00,60.7,56.0,29.86,NNE,31,0.0,-999.0,83,-99.99,,,0.00,weatherlink.com 1.10,2013-08-31 13:20:00,
2013-08-31 06:35:00,60.4,55.0,29.86,NNE,31,0.0,-999.0,83,-99.99,,,0.00,weatherlink.com 1.10,2013-08-31 13:35:00,
2013-08-31 06:50:00,60.1,55.0,29.86,NNE,31,0.0,-999.0,83,-99.99,,,0.00,weatherlink.com 1.10,2013-08-31 13:50:00,
2013-08-31 07:05:00,59.9,55.0,29.86,NNE,31,0.0,-999.0,84,-99.99,,,0.00,weatherlink.com 1.10,2013-08-31 14:05:00,
2013-08-31 07:20:00,59.6,55.0,29.86,NNE,31,0.0,-999.0,85,-99.99,,,0.00,weatherlink.com 1.10,2013-08-31 14:20:00,
2013-08-31 07:35:00,60.1,55.0,29.86,NNE,31,0.0,-999.0,84,-99.99,,,0.00,weatherlink.com 1.10,2013-08-31 14:35:00,
2013-08-31 07:50:00,61.0,56.0,29.86,NNE,31,1.0,-999.0,82,-99.99,,,0.00,weatherlink.com 1.10,2013-08-31 14:50:00,
2013-08-31 08:05:00,61.6,56.0,29.85,NNE,31,0.0,-999.0,81,-99.99,,,0.00,weatherlink.com 1.10,2013-08-31 15:05:00,
2013-08-31 08:20:00,62.4,56.0,29.85,NNE,31,0.0,-999.0,79,-99.99,,,0.00,weatherlink.com 1.10,2013-08-31 15:20:00,
2013-08-31 08:35:00,64.2,57.0,29.85,NNE,25,2.0,-999.0,76,-99.99,,,0.00,weatherlink.com 1.10,2013-08-31 15:35:00,
2013-08-31 08:50:00,65.3,58.0,29.85,NNE,17,0.0,-999.0,76,-99.99,,,0.00,weatherlink.com 1.10,2013-08-31 15:50:00,
2013-08-31 09:05:00,66.4,58.0,29.85,North,10,0.0,-999.0,73,-99.99,,,0.00,weatherlink.com 1.10,2013-08-31 16:05:00,
2013-08-31 09:20:00,67.4,58.0,29.84,NE,40,0.0,-999.0,72,-99.99,,,0.00,weatherlink.com 1.10,2013-08-31 16:20:00,
2013-08-31 09:35:00,69.1,58.0,29.84,NNE,25,3.0,-999.0,68,-99.99,,,0.00,weatherlink.com 1.10,2013-08-31 16:35:00,
2013-08-31 09:50:00,69.1,59.0,29.84,ENE,74,1.0,-999.0,69,-99.99,,,0.00,weatherlink.com 1.10,2013-08-31 16:50:00,
2013-08-31 10:05:00,69.9,59.0,29.83,NNE,30,0.0,-999.0,68,-99.99,,,0.00,weatherlink.com 1.10,2013-08-31 17:05:00,
2013-08-31 10:20:00,70.8,58.0,29.83,NNE,14,0.0,-999.0,65,-99.99,,,0.00,weatherlink.com 1.10,2013-08-31 17:20:00,
2013-08-31 10:35:00,71.3,58.0,29.83,NE,39,2.0,-999.0,64,-99.99,,,0.00,weatherlink.com 1.10,2013-08-31 17:35:00,
2013-08-31 10:50:00,72.3,58.0,29.82,NE,36,2.0,-999.0,62,-99.99,,,0.00,weatherlink.com 1.10,2013-08-31 17:50:00,
2013-08-31 11:05:00,73.3,58.0,29.82,ESE,113,3.0,-999.0,60,-99.99,,,0.00,weatherlink.com 1.10,2013-08-31 18:05:00,
2013-08-31 11:20:00,74.4,58.0,29.81,ENE,71,1.0,-999.0,57,-99.99,,,0.00,weatherlink.com 1.10,2013-08-31 18:20:00,
2013-08-31 11:35:00,74.7,58.0,29.80,NE,38,6.0,-999.0,57,-99.99,,,0.00,weatherlink.com 1.10,2013-08-31 18:35:00,
2013-08-31 11:50:00,75.8,58.0,29.80,ESE,103,1.0,-999.0,55,-99.99,,,0.00,weatherlink.com 1.10,2013-08-31 18:50:00,
2013-08-31 12:05:00,77.2,60.0,29.80,NE,40,4.0,-999.0,55,-99.99,,,0.00,weatherlink.com 1.10,2013-08-31 19:05:00,
2013-08-31 12:20:00,77.4,59.0,29.79,NNE,13,3.0,-999.0,54,-99.99,,,0.00,weatherlink.com 1.10,2013-08-31 19:20:00,
2013-08-31 12:35:00,79.0,59.0,29.79,ESE,116,1.0,-999.0,51,-99.99,,,0.00,weatherlink.com 1.10,2013-08-31 19:35:00,
2013-08-31 12:50:00,79.4,58.0,29.78,North,9,2.0,-999.0,48,-99.99,,,0.00,weatherlink.com 1.10,2013-08-31 19:50:00,
2013-08-31 13:05:00,80.1,56.0,29.78,NNE,19,2.0,-999.0,43,-99.99,,,0.00,weatherlink.com 1.10,2013-08-31 20:05:00,
2013-08-31 13:20:00,80.9,57.0,29.77,East,86,1.0,-999.0,44,-99.99,,,0.00,weatherlink.com 1.10,2013-08-31 20:20:00,
2013-08-31 13:35:00,81.6,57.0,29.77,SSE,149,3.0,-999.0,43,-99.99,,,0.00,weatherlink.com 1.10,2013-08-31 20:35:00,
2013-08-31 13:50:00,82.6,59.0,29.77,NE,34,6.0,-999.0,44,-99.99,,,0.00,weatherlink.com 1.10,2013-08-31 20:50:00,
2013-08-31 14:05:00,82.8,57.0,29.77,East,84,1.0,-999.0,42,-99.99,,,0.00,weatherlink.com 1.10,2013-08-31 21:05:00,
2013-08-31 14:20:00,83.4,58.0,29.76,NE,44,2.0,-999.0,42,-99.99,,,0.00,weatherlink.com 1.10,2013-08-31 21:20:00,
2013-08-31 14:35:00,83.6,58.0,29.75,NNE,25,0.0,-999.0,42,-99.99,,,0.00,weatherlink.com 1.10,2013-08-31 21:35:00,
2013-08-31 14:50:00,84.0,59.0,29.75,NW,320,0.0,-999.0,43,-99.99,,,0.00,weatherlink.com 1.10,2013-08-31 21:50:00,
2013-08-31 15:05:00,83.0,58.0,29.75,NNE,32,0.0,-999.0,42,-99.99,,,0.00,weatherlink.com 1.10,2013-08-31 22:05:00,
2013-08-31 15:20:00,83.2,58.0,29.74,NNE,22,1.0,-999.0,42,-99.99,,,0.00,weatherlink.com 1.10,2013-08-31 22:20:00,
2013-08-31 15:35:00,83.4,57.0,29.74,SE,146,1.0,-999.0,41,-99.99,,,0.00,weatherlink.com 1.10,2013-08-31 22:35:00,
2013-08-31 15:50:00,83.8,58.0,29.74,NE,41,1.0,-999.0,41,-99.99,,,0.00,weatherlink.com 1.10,2013-08-31 22:50:00,
2013-08-31 16:05:00,84.3,58.0,29.73,SW,227,0.0,-999.0,41,-99.99,,,0.00,weatherlink.com 1.10,2013-08-31 23:05:00,
2013-08-31 16:20:00,85.3,58.0,29.72,NE,40,0.0,-999.0,40,-99.99,,,0.00,weatherlink.com 1.10,2013-08-31 23:20:00,
2013-08-31 16:35:00,86.1,58.0,29.72,West,264,0.0,-999.0,38,-99.99,,,0.00,weatherlink.com 1.10,2013-08-31 23:35:00,
2013-08-31 16:51:00,86.7,61.0,29.71,SSW,202,0.0,-999.0,42,-99.99,,,0.00,weatherlink.com 1.10,2013-08-31 23:51:00,
2013-08-31 17:05:00,86.1,62.0,29.71,NW,314,0.0,-999.0,45,-99.99,,,0.00,weatherlink.com 1.10,2013-09-01 00:05:00,
2013-08-31 17:20:00,84.7,62.0,29.71,West,281,1.0,-999.0,46,-99.99,,,0.00,weatherlink.com 1.10,2013-09-01 00:20:00,
2013-08-31 17:35:00,83.2,61.0,29.71,WSW,246,3.0,-999.0,47,-99.99,,,0.00,weatherlink.com 1.10,2013-09-01 00:35:00,
2013-08-31 17:50:00,81.6,61.0,29.70,SSW,207,3.0,-999.0,49,-99.99,,,0.00,weatherlink.com 1.10,2013-09-01 00:50:00,
2013-08-31 18:05:00,80.3,60.0,29.70,WNW,300,2.0,-999.0,50,-99.99,,,0.00,weatherlink.com 1.10,2013-09-01 01:05:00,
2013-08-31 18:20:00,78.6,60.0,29.70,West,273,4.0,-999.0,53,-99.99,,,0.00,weatherlink.com 1.10,2013-09-01 01:20:00,
2013-08-31 18:35:00,77.2,60.0,29.70,NW,319,1.0,-999.0,55,-99.99,,,0.00,weatherlink.com 1.10,2013-09-01 01:35:00,
2013-08-31 18:50:00,76.1,59.0,29.71,West,272,3.0,-999.0,56,-99.99,,,0.00,weatherlink.com 1.10,2013-09-01 01:50:00,
2013-08-31 19:05:00,74.9,59.0,29.71,WNW,297,0.0,-999.0,58,-99.99,,,0.00,weatherlink.com 1.10,2013-09-01 02:05:00,
2013-08-31 19:20:00,73.7,58.0,29.71,West,278,1.0,-999.0,59,-99.99,,,0.00,weatherlink.com 1.10,2013-09-01 02:20:00,
2013-08-31 19:35:00,72.8,58.0,29.71,NW,313,2.0,-999.0,60,-99.99,,,0.00,weatherlink.com 1.10,2013-09-01 02:35:00,
2013-08-31 19:50:00,72.1,57.0,29.71,NW,315,0.0,-999.0,59,-99.99,,,0.00,weatherlink.com 1.10,2013-09-01 02:50:00,
2013-08-31 20:05:00,71.6,57.0,29.71,WSW,238,0.0,-999.0,60,-99.99,,,0.00,weatherlink.com 1.10,2013-09-01 03:05:00,
2013-08-31 20:20:00,71.5,56.0,29.71,WNW,298,2.0,-999.0,59,-99.99,,,0.00,weatherlink.com 1.10,2013-09-01 03:20:00,
2013-08-31 20:35:00,71.1,56.0,29.71,NW,316,1.0,-999.0,59,-99.99,,,0.00,weatherlink.com 1.10,2013-09-01 03:35:00,
2013-08-31 20:50:00,70.8,56.0,29.71,West,279,2.0,-999.0,60,-99.99,,,0.00,weatherlink.com 1.10,2013-09-01 03:50:00,
2013-08-31 21:05:00,69.9,55.0,29.72,West,274,0.0,-999.0,60,-99.99,,,0.00,weatherlink.com 1.10,2013-09-01 04:05:00,
2013-08-31 21:20:00,69.3,57.0,29.72,SSE,167,0.0,-999.0,64,-99.99,,,0.00,weatherlink.com 1.10,2013-09-01 04:20:00,
2013-08-31 21:35:00,68.1,56.0,29.73,SSE,167,0.0,-999.0,66,-99.99,,,0.00,weatherlink.com 1.10,2013-09-01 04:35:00,
2013-08-31 21:50:00,67.8,56.0,29.74,ESE,121,0.0,-999.0,66,-99.99,,,0.00,weatherlink.com 1.10,2013-09-01 04:50:00,
2013-08-31 22:05:00,67.1,55.0,29.74,ESE,121,0.0,-999.0,66,-99.99,,,0.00,weatherlink.com 1.10,2013-09-01 05:05:00,
2013-08-31 22:20:00,66.0,55.0,29.74,West,268,0.0,-999.0,68,-99.99,,,0.00,weatherlink.com 1.10,2013-09-01 05:20:00,
2013-08-31 22:35:00,65.5,55.0,29.75,WNW,300,0.0,-999.0,68,-99.99,,,0.00,weatherlink.com 1.10,2013-09-01 05:35:00,
2013-08-31 22:50:00,64.8,55.0,29.75,WNW,300,0.0,-999.0,70,-99.99,,,0.00,weatherlink.com 1.10,2013-09-01 05:50:00,
2013-08-31 23:05:00,63.9,54.0,29.75,WNW,300,0.0,-999.0,71,-99.99,,,0.00,weatherlink.com 1.10,2013-09-01 06:05:00,
2013-08-31 23:20:00,63.4,54.0,29.75,WNW,300,0.0,-999.0,72,-99.99,,,0.00,weatherlink.com 1.10,2013-09-01 06:20:00,
2013-08-31 23:35:00,62.9,54.0,29.76,WNW,286,0.0,-999.0,72,-99.99,,,0.00,weatherlink.com 1.10,2013-09-01 06:35:00,
2013-08-31 23:50:00,62.6,53.0,29.75,WNW,287,0.0,-999.0,72,-99.99,,,0.00,weatherlink.com 1.10,2013-09-01 06:50:00,